Time;durP1;ratioP1;P1;durP2;ratioP2;P2;SDS_P1;SDS_P2;PMS_P1;PMS_P2;Temp;Humidity;BMP_temperature;BMP_pressure;BME280_temperature;BME280_humidity;BME280_pressure;Samples;Min_cycle;Max_cycle;Signal;HPM_P1;HPM_P2
2021/08/09 00:00:45;;;;;;;6.45;5.57;;;26.90;56.10;;;;;;4199454;28;20108;-58
2021/08/09 00:02:47;;;;;;;7.10;5.18;;;26.90;55.90;;;;;;4199444;28;20045;-58
2021/08/09 00:04:49;;;;;;;8.68;5.05;;;26.90;55.90;;;;;;4199262;28;20049;-58
2021/08/09 00:06:51;;;;;;;5.55;4.72;;;26.90;56.00;;;;;;4199443;28;20113;-58
2021/08/09 00:08:53;;;;;;;5.70;5.03;;;26.90;55.90;;;;;;4198514;28;20053;-58
2021/08/09 00:10:55;;;;;;;5.22;4.72;;;26.90;55.90;;;;;;4199392;28;20071;-58
2021/08/09 00:12:58;;;;;;;5.82;5.05;;;26.90;55.80;;;;;;4199303;28;20045;-59
2021/08/09 00:15:01;;;;;;;5.25;4.75;;;26.90;55.80;;;;;;4199185;28;20055;-58
2021/08/09 00:17:03;;;;;;;5.65;4.28;;;26.90;55.80;;;;;;4199324;28;20056;-58
2021/08/09 00:19:05;;;;;;;4.85;4.32;;;26.90;55.70;;;;;;4199343;28;20045;-58
2021/08/09 00:21:07;;;;;;;6.78;4.53;;;26.90;55.70;;;;;;4199363;28;20045;-58
2021/08/09 00:23:09;;;;;;;5.43;4.40;;;26.90;55.80;;;;;;4199404;28;20071;-58
2021/08/09 00:25:11;;;;;;;5.93;4.22;;;26.90;55.70;;;;;;4199351;28;20045;-59
2021/08/09 00:27:13;;;;;;;5.05;4.40;;;26.90;55.80;;;;;;4199381;28;20057;-58
2021/08/09 00:29:15;;;;;;;7.40;4.07;;;26.90;55.70;;;;;;4199277;28;20049;-58
2021/08/09 00:31:17;;;;;;;5.15;4.53;;;26.90;55.80;;;;;;4199248;28;20565;-58
2021/08/09 00:33:19;;;;;;;4.38;3.92;;;26.90;55.70;;;;;;4199115;28;20056;-58
2021/08/09 00:35:21;;;;;;;5.05;4.03;;;26.90;55.70;;;;;;4199075;28;20041;-58
2021/08/09 00:37:24;;;;;;;5.90;4.50;;;26.90;55.60;;;;;;4199181;28;20045;-58
2021/08/09 00:39:26;;;;;;;6.32;4.03;;;26.90;55.60;;;;;;4199120;28;20049;-58
2021/08/09 00:41:28;;;;;;;4.43;3.63;;;26.90;55.70;;;;;;4199212;28;20101;-58
2021/08/09 00:43:30;;;;;;;5.60;4.22;;;26.90;55.60;;;;;;4199100;28;20491;-58
2021/08/09 00:45:32;;;;;;;7.00;4.13;;;26.90;55.70;;;;;;4199012;28;20075;-58
2021/08/09 00:47:34;;;;;;;5.78;3.95;;;26.90;55.60;;;;;;4199130;28;20048;-58
2021/08/09 00:49:36;;;;;;;5.28;3.90;;;26.90;55.70;;;;;;4199037;28;20049;-58
2021/08/09 00:51:38;;;;;;;4.65;3.78;;;26.90;55.80;;;;;;4199049;28;20053;-58
2021/08/09 00:53:40;;;;;;;5.05;3.95;;;26.90;55.50;;;;;;4199040;28;20053;-58
2021/08/09 00:55:44;;;;;;;3.95;3.45;;;26.90;55.50;;;;;;4198947;28;20053;-58
2021/08/09 00:57:46;;;;;;;4.15;3.75;;;26.90;55.40;;;;;;4199060;28;20049;-58
2021/08/09 00:59:48;;;;;;;4.80;4.13;;;26.90;55.50;;;;;;4198991;28;20041;-58
2021/08/09 01:01:50;;;;;;;4.85;3.20;;;26.90;55.50;;;;;;4199066;28;20071;-58
2021/08/09 01:03:52;;;;;;;5.45;3.90;;;26.90;55.50;;;;;;4199268;28;20077;-58
2021/08/09 01:05:55;;;;;;;3.60;3.28;;;26.90;55.50;;;;;;4202014;28;20113;-58
2021/08/09 01:08:21;;;;;;;4.18;3.30;;;26.90;55.60;;;;;;4202128;28;20049;-58
2021/08/09 01:10:40;;;;;;;7.85;3.50;;;26.90;55.70;;;;;;4202127;28;20053;-58
2021/08/09 01:12:51;;;;;;;7.43;3.65;;;26.90;55.70;;;;;;4202145;28;20049;-59
2021/08/09 01:15:03;;;;;;;3.80;3.47;;;26.90;55.80;;;;;;4202015;28;20052;-57
2021/08/09 01:17:06;;;;;;;4.85;3.65;;;26.90;55.80;;;;;;4202028;28;20124;-58
2021/08/09 01:19:26;;;;;;;3.90;3.47;;;26.90;55.80;;;;;;4201974;28;20071;-58
2021/08/09 01:21:32;;;;;;;4.45;3.63;;;26.90;55.90;;;;;;4201973;28;20049;-57
2021/08/09 01:23:56;;;;;;;4.72;3.78;;;26.90;56.00;;;;;;4201919;28;20055;-58
2021/08/09 01:26:44;;;;;;;4.53;3.50;;;26.90;55.90;;;;;;4201880;28;20048;-58
2021/08/09 01:28:47;;;;;;;6.65;4.28;;;26.90;56.00;;;;;;4200976;28;20057;-58
2021/08/09 01:30:52;;;;;;;4.25;3.85;;;26.90;55.90;;;;;;4201865;28;20049;-57
2021/08/09 01:32:54;;;;;;;3.90;3.20;;;26.90;56.00;;;;;;4201749;28;20079;-58
2021/08/09 01:34:57;;;;;;;4.07;3.08;;;26.90;55.90;;;;;;4201729;28;20072;-57
2021/08/09 01:37:00;;;;;;;3.67;3.38;;;26.90;56.00;;;;;;4201620;28;20049;-57
2021/08/09 01:39:04;;;;;;;5.05;3.17;;;26.90;56.00;;;;;;4201648;28;20068;-58
2021/08/09 01:41:07;;;;;;;3.47;3.17;;;26.90;56.10;;;;;;4201693;28;20049;-57
2021/08/09 01:43:10;;;;;;;4.60;3.30;;;26.90;56.10;;;;;;4201752;28;20308;-58
2021/08/09 01:45:14;;;;;;;4.45;3.30;;;26.90;56.00;;;;;;4201595;28;20041;-58
2021/08/09 01:47:16;;;;;;;3.72;3.25;;;26.90;56.00;;;;;;4201647;28;20045;-58
2021/08/09 01:49:20;;;;;;;3.92;3.45;;;26.90;56.20;;;;;;4201523;28;20080;-58
2021/08/09 01:51:23;;;;;;;3.70;3.30;;;26.90;56.00;;;;;;4201604;28;20071;-58
2021/08/09 01:53:25;;;;;;;4.00;3.45;;;26.90;56.00;;;;;;4201484;28;20049;-58
2021/08/09 01:55:27;;;;;;;3.95;3.15;;;26.90;55.90;;;;;;4201357;28;20045;-57
2021/08/09 01:57:30;;;;;;;3.20;2.90;;;26.80;56.00;;;;;;4201394;28;20049;-58
2021/08/09 01:59:32;;;;;;;4.13;3.35;;;26.80;55.90;;;;;;4201265;28;20106;-57
2021/08/09 02:01:33;;;;;;;4.40;2.97;;;26.80;56.00;;;;;;4201342;28;20049;-56
2021/08/09 02:03:35;;;;;;;3.88;3.05;;;26.80;55.90;;;;;;4201145;28;20045;-57
2021/08/09 02:05:38;;;;;;;3.28;2.97;;;26.80;56.00;;;;;;4201098;28;20116;-57
2021/08/09 02:07:42;;;;;;;7.72;3.63;;;26.80;56.00;;;;;;4201129;28;20045;-58
2021/08/09 02:09:44;;;;;;;3.22;2.90;;;26.80;55.90;;;;;;4201181;28;20083;-59
2021/08/09 02:12:02;;;;;;;4.07;3.00;;;26.80;55.90;;;;;;4201179;28;20151;-59
2021/08/09 02:14:06;;;;;;;3.47;2.80;;;26.80;56.10;;;;;;4201230;28;20113;-58
2021/08/09 02:16:20;;;;;;;3.97;3.05;;;26.90;55.70;;;;;;4200581;28;20068;-58
2021/08/09 02:18:38;;;;;;;5.25;3.63;;;26.90;55.70;;;;;;4201028;28;20071;-58
2021/08/09 02:20:44;;;;;;;3.53;3.15;;;26.90;55.60;;;;;;4201031;28;20051;-59
2021/08/09 02:22:51;;;;;;;5.53;3.55;;;26.90;55.60;;;;;;4200963;28;20049;-58
2021/08/09 02:25:20;;;;;;;4.00;3.15;;;26.90;55.70;;;;;;4200990;28;20052;-58
2021/08/09 02:27:22;;;;;;;4.05;3.30;;;26.80;55.70;;;;;;4196570;28;20071;-58
2021/08/09 02:29:31;;;;;;;6.10;3.53;;;26.80;55.70;;;;;;4200895;28;20044;-58
2021/08/09 02:31:36;;;;;;;5.05;3.67;;;26.80;55.70;;;;;;4200838;28;20045;-58
2021/08/09 02:33:39;;;;;;;4.82;3.30;;;26.80;55.80;;;;;;4200822;28;20044;-58
2021/08/09 02:35:43;;;;;;;4.63;3.72;;;26.80;55.80;;;;;;4200751;28;20072;-58
2021/08/09 02:37:47;;;;;;;6.68;3.80;;;26.80;55.80;;;;;;4200774;28;20071;-57
2021/08/09 02:39:50;;;;;;;4.07;3.53;;;26.80;55.90;;;;;;4200746;28;20049;-57
2021/08/09 02:41:52;;;;;;;7.00;4.43;;;26.80;55.90;;;;;;4200709;28;20097;-57
2021/08/09 02:43:54;;;;;;;7.13;3.90;;;26.80;56.00;;;;;;4200714;28;20052;-57
2021/08/09 02:45:57;;;;;;;9.07;3.65;;;26.80;55.90;;;;;;4200632;28;20052;-57
2021/08/09 02:48:01;;;;;;;5.90;4.13;;;26.80;55.90;;;;;;4200577;28;20045;-57
2021/08/09 02:50:09;;;;;;;6.82;3.90;;;26.80;56.00;;;;;;4200418;28;20082;-59
2021/08/09 02:52:11;;;;;;;5.20;4.03;;;26.80;56.00;;;;;;4200471;28;20075;-59
2021/08/09 02:54:18;;;;;;;7.85;4.03;;;26.80;56.10;;;;;;4200266;28;20055;-60
2021/08/09 02:56:25;;;;;;;7.88;3.58;;;26.80;56.10;;;;;;4200231;28;20133;-60
2021/08/09 02:58:27;;;;;;;4.55;3.67;;;26.80;56.10;;;;;;4200323;28;20038;-59
2021/08/09 03:00:30;;;;;;;5.97;4.18;;;26.80;56.10;;;;;;4200335;28;20049;-60
2021/08/09 03:02:36;;;;;;;6.82;4.00;;;26.80;56.10;;;;;;4200254;28;20045;-59
2021/08/09 03:04:41;;;;;;;7.30;4.10;;;26.80;56.10;;;;;;4200063;28;20049;-59
2021/08/09 03:06:43;;;;;;;;;;;26.80;56.10;;;;;;4200601;28;20055;-60
2021/08/09 03:08:45;;;;;;;6.35;4.00;;;26.80;56.10;;;;;;4200220;28;19921;-59
2021/08/09 03:10:48;;;;;;;6.95;3.40;;;26.80;56.10;;;;;;4200208;28;20049;-59
2021/08/09 03:12:58;;;;;;;5.00;4.07;;;26.80;56.10;;;;;;4200130;28;20075;-59
2021/08/09 03:15:00;;;;;;;4.93;3.88;;;26.80;56.10;;;;;;4200066;28;20049;-60
2021/08/09 03:17:04;;;;;;;5.15;4.20;;;26.80;56.10;;;;;;4200017;28;20088;-59
2021/08/09 03:19:06;;;;;;;6.32;3.90;;;26.70;56.10;;;;;;4200068;28;20109;-59
2021/08/09 03:21:09;;;;;;;4.10;3.13;;;26.80;56.10;;;;;;4199972;28;20100;-60
2021/08/09 03:23:11;;;;;;;10.40;4.30;;;26.80;56.00;;;;;;4200036;28;20045;-59
2021/08/09 03:25:13;;;;;;;4.75;3.97;;;26.80;56.00;;;;;;4199919;28;20124;-59
2021/08/09 03:27:15;;;;;;;7.35;3.72;;;26.70;56.10;;;;;;4199145;28;20049;-60
2021/08/09 03:29:17;;;;;;;7.28;3.80;;;26.70;56.00;;;;;;4200022;28;20059;-59
2021/08/09 03:31:19;;;;;;;6.03;4.13;;;26.80;56.00;;;;;;4199837;28;20049;-59
2021/08/09 03:33:21;;;;;;;6.75;3.53;;;26.80;56.00;;;;;;4199827;28;20049;-59
2021/08/09 03:35:23;;;;;;;7.18;4.05;;;26.80;56.00;;;;;;4199737;28;20544;-57
2021/08/09 03:37:25;;;;;;;3.83;3.42;;;26.70;56.00;;;;;;4199490;28;20045;-57
2021/08/09 03:39:28;;;;;;;6.05;3.90;;;26.70;56.20;;;;;;4199837;28;20045;-59
2021/08/09 03:41:30;;;;;;;5.30;3.65;;;26.70;56.20;;;;;;4199817;28;20114;-58
2021/08/09 03:43:32;;;;;;;9.10;3.75;;;26.70;56.20;;;;;;4199702;28;20048;-58
2021/08/09 03:45:33;;;;;;;5.55;3.75;;;26.70;56.40;;;;;;4199639;28;20083;-58
2021/08/09 03:47:35;;;;;;;9.27;4.10;;;26.70;56.10;;;;;;4199644;28;20075;-59
2021/08/09 03:49:37;;;;;;;7.25;4.20;;;26.70;56.10;;;;;;4199676;28;20083;-59
2021/08/09 03:51:40;;;;;;;8.27;3.90;;;26.70;56.10;;;;;;4199681;28;20075;-59
2021/08/09 03:53:42;;;;;;;5.40;3.95;;;26.80;56.20;;;;;;4199620;28;20075;-59
2021/08/09 03:55:44;;;;;;;4.38;3.65;;;26.70;56.10;;;;;;4199672;28;20108;-59
2021/08/09 03:57:46;;;;;;;5.97;3.47;;;26.70;56.10;;;;;;4199634;28;20045;-58
2021/08/09 03:59:48;;;;;;;5.30;3.63;;;26.70;56.00;;;;;;4199604;28;20045;-58
2021/08/09 04:01:50;;;;;;;6.53;3.88;;;26.70;56.00;;;;;;4199439;28;20056;-59
2021/08/09 04:03:53;;;;;;;6.90;3.60;;;26.70;56.10;;;;;;4199515;28;20141;-59
2021/08/09 04:05:55;;;;;;;7.35;4.18;;;26.70;56.00;;;;;;4199233;28;20057;-59
2021/08/09 04:07:57;;;;;;;8.77;4.43;;;26.70;56.00;;;;;;4199608;28;20045;-59
2021/08/09 04:09:59;;;;;;;6.90;3.47;;;26.70;56.10;;;;;;4199433;28;20105;-58
2021/08/09 04:12:01;;;;;;;8.98;4.13;;;26.70;56.10;;;;;;4199336;28;20090;-58
2021/08/09 04:14:05;;;;;;;7.20;4.40;;;26.70;56.10;;;;;;4199314;28;20055;-57
2021/08/09 04:16:07;;;;;;;7.38;4.40;;;26.70;56.10;;;;;;4199241;28;20048;-58
2021/08/09 04:18:09;;;;;;;5.57;4.20;;;26.70;56.00;;;;;;4199415;28;20543;-58
2021/08/09 04:20:12;;;;;;;6.28;4.45;;;26.70;56.20;;;;;;4199348;28;20071;-58
2021/08/09 04:22:14;;;;;;;6.70;4.10;;;26.70;56.20;;;;;;4199246;28;20052;-57
2021/08/09 04:24:16;;;;;;;7.13;4.20;;;26.70;56.20;;;;;;4199220;28;20478;-58
2021/08/09 04:26:19;;;;;;;7.55;5.00;;;26.70;56.10;;;;;;4199208;28;20059;-58
2021/08/09 04:28:21;;;;;;;6.28;4.80;;;26.70;56.20;;;;;;4199224;28;20044;-57
2021/08/09 04:30:23;;;;;;;7.80;4.43;;;26.70;56.10;;;;;;4199233;28;20045;-57
2021/08/09 04:32:25;;;;;;;7.20;4.38;;;26.70;56.10;;;;;;4199221;28;20053;-57
2021/08/09 04:34:27;;;;;;;6.28;4.18;;;26.70;56.10;;;;;;4199187;28;20049;-58
2021/08/09 04:36:29;;;;;;;6.35;4.47;;;26.70;56.10;;;;;;4199101;28;20041;-58
2021/08/09 04:38:31;;;;;;;5.82;4.30;;;26.70;56.10;;;;;;4200550;28;20045;-57
2021/08/09 04:40:33;;;;;;;5.88;4.22;;;26.70;56.10;;;;;;4202427;28;20045;-57
2021/08/09 04:42:37;;;;;;;8.18;4.53;;;26.70;56.20;;;;;;4202411;28;20045;-57
2021/08/09 04:44:39;;;;;;;7.72;4.15;;;26.70;56.10;;;;;;4202505;28;20076;-57
2021/08/09 04:46:41;;;;;;;6.00;4.30;;;26.70;56.10;;;;;;4202366;28;20132;-57
2021/08/09 04:48:43;;;;;;;4.43;3.78;;;26.70;56.20;;;;;;4202237;28;20055;-58
2021/08/09 04:50:45;;;;;;;4.88;4.05;;;26.70;56.20;;;;;;4202406;28;20053;-58
2021/08/09 04:52:47;;;;;;;5.25;4.13;;;26.70;56.10;;;;;;4202395;28;20049;-57
2021/08/09 04:54:50;;;;;;;7.18;3.83;;;26.70;56.10;;;;;;4202226;28;20486;-57
2021/08/09 04:56:51;;;;;;;6.63;3.97;;;26.70;56.20;;;;;;4202164;28;20049;-57
2021/08/09 04:58:53;;;;;;;5.63;3.20;;;26.70;56.20;;;;;;4202249;28;20060;-58
2021/08/09 05:00:55;;;;;;;4.50;3.55;;;26.70;56.10;;;;;;4202115;28;20053;-57
2021/08/09 05:02:58;;;;;;;5.63;3.90;;;26.70;56.10;;;;;;4202147;28;20068;-57
2021/08/09 05:04:59;;;;;;;4.32;3.45;;;26.70;56.20;;;;;;4201873;28;20045;-57
2021/08/09 05:07:03;;;;;;;6.05;4.18;;;26.70;56.20;;;;;;4202089;28;20049;-57
2021/08/09 05:09:05;;;;;;;5.13;3.38;;;26.70;56.20;;;;;;4201957;28;20121;-58
2021/08/09 05:11:07;;;;;;;7.50;3.97;;;26.70;56.20;;;;;;4201951;28;20064;-58
2021/08/09 05:13:22;;;;;;;;;;;26.70;56.20;;;;;;4202396;28;20056;-58
2021/08/09 05:15:26;;;;;;;5.85;4.60;;;26.70;56.30;;;;;;4201880;28;19920;-58
2021/08/09 05:17:28;;;;;;;7.68;3.83;;;26.70;56.30;;;;;;4201651;28;20049;-61
2021/08/09 05:19:30;;;;;;;12.38;4.30;;;26.70;56.10;;;;;;4201803;28;20049;-61
2021/08/09 05:21:35;;;;;;;;;;;26.70;56.00;;;;;;4202148;28;20060;-60
2021/08/09 05:23:36;;;;;;;9.32;5.45;;;26.60;56.10;;;;;;4201528;28;19921;-61
2021/08/09 05:25:39;;;;;;;23.38;8.18;;;26.60;55.90;;;;;;4201342;28;20051;-60
2021/08/09 05:27:41;;;;;;;14.75;5.82;;;26.50;56.00;;;;;;4201179;28;20075;-59
2021/08/09 05:29:43;;;;;;;8.20;4.97;;;26.50;56.20;;;;;;4201770;28;20079;-62
2021/08/09 05:31:45;;;;;;;14.00;8.13;;;26.50;56.20;;;;;;4201726;28;20057;-62
2021/08/09 05:33:47;;;;;;;111.30;85.05;;;26.60;56.00;;;;;;4201681;28;20084;-63
2021/08/09 05:35:49;;;;;;;119.75;87.25;;;26.50;56.10;;;;;;4201654;28;20045;-64
2021/08/09 05:37:51;;;;;;;48.60;29.50;;;26.50;56.30;;;;;;4201589;28;20055;-65
2021/08/09 05:39:58;;;;;;;50.65;32.92;;;26.50;56.50;;;;;;4200845;28;20104;-64
2021/08/09 05:42:00;;;;;;;34.53;26.83;;;26.50;56.60;;;;;;4200988;28;20041;-62
2021/08/09 05:44:03;;;;;;;31.40;20.88;;;26.50;56.50;;;;;;4201233;28;20059;-64
2021/08/09 05:46:05;;;;;;;28.88;20.70;;;26.50;56.50;;;;;;4200890;28;20045;-59
2021/08/09 05:48:07;;;;;;;32.63;23.02;;;26.50;56.50;;;;;;4201517;28;20049;-60
2021/08/09 05:50:10;;;;;;;31.02;20.98;;;26.50;56.40;;;;;;4200585;28;20049;-62
2021/08/09 05:52:23;;;;;;;32.47;18.27;;;26.50;56.50;;;;;;4200927;28;20048;-59
2021/08/09 05:54:25;;;;;;;28.15;18.17;;;26.50;56.60;;;;;;4201485;28;20049;-61
2021/08/09 05:56:27;;;;;;;25.17;16.42;;;26.50;56.60;;;;;;4200977;28;20075;-63
2021/08/09 05:58:29;;;;;;;23.60;16.00;;;26.50;56.70;;;;;;4200773;28;20045;-66
2021/08/09 06:00:31;;;;;;;19.23;14.20;;;26.50;56.40;;;;;;4200451;28;20479;-67
2021/08/09 06:02:40;;;;;;;22.48;13.68;;;26.50;56.40;;;;;;4200974;28;20059;-65
2021/08/09 06:04:42;;;;;;;22.15;14.45;;;26.40;56.60;;;;;;4201015;28;20049;-63
2021/08/09 06:06:44;;;;;;;21.92;12.50;;;26.50;56.70;;;;;;4201157;28;20122;-60
2021/08/09 06:08:47;;;;;;;17.92;11.23;;;26.50;56.60;;;;;;4201029;28;20053;-64
2021/08/09 06:10:49;;;;;;;16.27;10.77;;;26.50;56.40;;;;;;4201016;28;20045;-63
2021/08/09 06:12:51;;;;;;;18.92;11.48;;;26.50;56.30;;;;;;4201032;28;20045;-63
2021/08/09 06:14:53;;;;;;;17.55;11.77;;;26.50;56.40;;;;;;4200810;28;20045;-66
2021/08/09 06:16:55;;;;;;;19.30;13.50;;;26.50;56.60;;;;;;4200901;28;20053;-60
2021/08/09 06:18:57;;;;;;;18.35;11.18;;;26.50;56.50;;;;;;4201045;28;20051;-58
2021/08/09 06:21:03;;;;;;;85.32;69.22;;;26.50;56.70;;;;;;4201018;28;20040;-61
2021/08/09 06:23:05;;;;;;;40.67;34.28;;;26.50;56.50;;;;;;4200653;28;20053;-60
2021/08/09 06:25:07;;;;;;;48.28;38.40;;;26.50;56.60;;;;;;4200869;28;20045;-63
2021/08/09 06:27:09;;;;;;;32.15;23.92;;;26.50;56.50;;;;;;4200717;28;20048;-66
2021/08/09 06:29:11;;;;;;;30.00;25.92;;;26.60;56.60;;;;;;4198818;28;20053;-64
2021/08/09 06:31:13;;;;;;;35.10;25.98;;;26.50;56.80;;;;;;4200688;28;20109;-60
2021/08/09 06:33:16;;;;;;;30.23;22.33;;;26.50;57.10;;;;;;4200593;28;20083;-62
2021/08/09 06:35:18;;;;;;;35.13;26.88;;;26.50;56.90;;;;;;4200610;28;20083;-60
2021/08/09 06:37:20;;;;;;;24.15;19.85;;;26.50;57.00;;;;;;4200239;28;20049;-59
2021/08/09 06:39:22;;;;;;;23.50;17.33;;;26.50;56.40;;;;;;4200392;28;20051;-59
2021/08/09 06:41:25;;;;;;;32.47;22.90;;;26.50;56.20;;;;;;4200480;28;20041;-57
2021/08/09 06:43:27;;;;;;;25.40;22.10;;;26.40;56.80;;;;;;4200803;28;20045;-58
2021/08/09 06:45:30;;;;;;;26.35;21.73;;;26.50;56.70;;;;;;4200668;28;20045;-62
2021/08/09 06:47:32;;;;;;;28.95;20.60;;;26.40;56.80;;;;;;4200125;28;20048;-62
2021/08/09 06:49:34;;;;;;;23.30;20.02;;;26.50;57.20;;;;;;4200360;28;20108;-61
2021/08/09 06:51:36;;;;;;;28.42;22.23;;;26.50;57.10;;;;;;4200532;28;20464;-61
2021/08/09 06:53:38;;;;;;;30.92;26.45;;;26.50;57.20;;;;;;4200501;28;20109;-61
2021/08/09 06:55:44;;;;;;;51.30;45.25;;;26.50;57.10;;;;;;4200517;28;20127;-61
2021/08/09 06:57:46;;;;;;;50.63;40.78;;;26.50;57.40;;;;;;4200048;28;20052;-64
2021/08/09 06:59:49;;;;;;;29.55;26.23;;;26.50;57.50;;;;;;4199440;28;20048;-59
2021/08/09 07:01:55;;;;;;;39.17;34.85;;;26.50;57.30;;;;;;4200361;28;20049;-61
2021/08/09 07:03:57;;;;;;;48.10;37.22;;;26.60;57.30;;;;;;4200281;28;20049;-60
2021/08/09 07:05:59;;;;;;;37.35;33.13;;;26.60;57.30;;;;;;4200139;28;20060;-60
2021/08/09 07:08:01;;;;;;;44.67;38.10;;;26.60;57.20;;;;;;4200292;28;20048;-62
2021/08/09 07:10:03;;;;;;;80.18;37.85;;;26.60;57.30;;;;;;4200238;28;20083;-63
2021/08/09 07:12:05;;;;;;;59.65;41.38;;;26.60;57.60;;;;;;4200322;28;20048;-63
2021/08/09 07:14:07;;;;;;;53.03;43.58;;;26.60;57.70;;;;;;4200126;28;20051;-63
2021/08/09 07:16:09;;;;;;;48.92;39.47;;;26.60;57.80;;;;;;4200202;28;20075;-63
2021/08/09 07:18:13;;;;;;;35.80;31.63;;;26.50;57.90;;;;;;4200019;28;20049;-61
2021/08/09 07:20:15;;;;;;;36.20;31.73;;;26.50;57.80;;;;;;4200171;28;20071;-63
2021/08/09 07:22:18;;;;;;;49.53;35.90;;;26.50;57.60;;;;;;4200107;28;20059;-63
2021/08/09 07:24:20;;;;;;;38.17;32.20;;;26.50;57.70;;;;;;4200188;28;20049;-63
2021/08/09 07:26:22;;;;;;;33.22;29.73;;;26.60;57.50;;;;;;4200052;28;20045;-62
2021/08/09 07:28:24;;;;;;;34.25;30.45;;;26.60;57.50;;;;;;4199966;28;20049;-63
2021/08/09 07:30:26;;;;;;;32.33;28.48;;;26.60;57.50;;;;;;4199992;28;20045;-62
2021/08/09 07:32:27;;;;;;;32.05;28.48;;;26.60;57.40;;;;;;4199976;28;20049;-65
2021/08/09 07:34:29;;;;;;;32.78;28.23;;;26.60;57.50;;;;;;4199837;28;20049;-64
2021/08/09 07:36:31;;;;;;;31.90;27.42;;;26.60;57.50;;;;;;4199797;28;20045;-63
2021/08/09 07:38:33;;;;;;;32.05;26.30;;;26.60;57.60;;;;;;4199762;28;20048;-62
2021/08/09 07:40:35;;;;;;;30.73;21.65;;;26.60;58.20;;;;;;4198878;28;20079;-66
2021/08/09 07:42:37;;;;;;;21.00;15.85;;;26.60;57.80;;;;;;4199528;28;20051;-66
2021/08/09 07:44:39;;;;;;;14.57;13.07;;;26.70;57.80;;;;;;4198829;28;20041;-64
2021/08/09 07:46:41;;;;;;;15.98;13.57;;;26.70;58.00;;;;;;4198395;28;20498;-64
2021/08/09 07:48:43;;;;;;;13.10;10.25;;;26.70;58.00;;;;;;4198466;28;20053;-65
2021/08/09 07:50:45;;;;;;;11.30;8.77;;;26.70;57.80;;;;;;4198934;28;20075;-69
2021/08/09 07:52:48;;;;;;;8.60;7.68;;;26.70;58.10;;;;;;4198774;28;20053;-67
2021/08/09 07:54:50;;;;;;;13.85;6.78;;;26.70;58.00;;;;;;4199235;28;20049;-70
2021/08/09 07:56:52;;;;;;;8.57;5.97;;;26.70;58.10;;;;;;4198826;28;20075;-66
2021/08/09 07:58:54;;;;;;;9.77;5.85;;;26.60;58.10;;;;;;4199014;28;20044;-64
2021/08/09 08:00:58;;;;;;;7.03;5.28;;;26.60;58.30;;;;;;4198278;28;20048;-68
2021/08/09 08:03:05;;;;;;;9.32;6.13;;;26.60;58.40;;;;;;4198123;28;20044;-68
2021/08/09 08:05:07;;;;;;;5.10;4.70;;;26.60;58.40;;;;;;4197953;28;20056;-68
2021/08/09 08:07:09;;;;;;;8.98;5.90;;;26.60;58.40;;;;;;4198520;28;20112;-65
2021/08/09 08:09:11;;;;;;;7.03;5.15;;;26.70;58.10;;;;;;4198756;28;20103;-66
2021/08/09 08:11:13;;;;;;;6.32;5.20;;;26.70;58.10;;;;;;4198705;28;20108;-64
2021/08/09 08:13:15;;;;;;;6.88;4.20;;;26.60;57.70;;;;;;4198539;28;20045;-64
2021/08/09 08:15:17;;;;;;;4.93;3.45;;;26.70;57.80;;;;;;4198141;28;20094;-67
2021/08/09 08:17:20;;;;;;;6.68;4.32;;;26.70;57.80;;;;;;4198820;28;20041;-64
2021/08/09 08:19:22;;;;;;;7.15;3.85;;;26.70;57.40;;;;;;4199108;28;20055;-66
2021/08/09 08:21:24;;;;;;;4.13;3.60;;;26.70;57.40;;;;;;4198429;28;20482;-66
2021/08/09 08:23:26;;;;;;;3.75;3.00;;;26.70;57.40;;;;;;4197947;28;20059;-66
2021/08/09 08:25:29;;;;;;;7.25;3.47;;;26.70;57.00;;;;;;4198794;28;20051;-65
2021/08/09 08:27:31;;;;;;;12.27;11.07;;;26.60;57.10;;;;;;4199258;28;20045;-66
2021/08/09 08:29:33;;;;;;;54.85;43.10;;;26.60;57.00;;;;;;4199070;28;20049;-69
2021/08/09 08:31:35;;;;;;;58.20;44.83;;;26.60;56.20;;;;;;4198329;28;20049;-69
2021/08/09 08:33:38;;;;;;;43.25;31.60;;;26.60;55.50;;;;;;4198514;28;20052;-64
2021/08/09 08:35:40;;;;;;;33.50;25.90;;;26.70;55.80;;;;;;4198333;28;20052;-66
2021/08/09 08:37:42;;;;;;;30.95;22.75;;;26.60;55.90;;;;;;4198458;28;20045;-67
2021/08/09 08:39:44;;;;;;;26.95;18.95;;;26.60;56.00;;;;;;4198839;28;20102;-65
2021/08/09 08:41:46;;;;;;;22.05;16.65;;;26.60;55.40;;;;;;4198127;28;20041;-66
2021/08/09 08:43:48;;;;;;;23.40;17.10;;;26.70;55.70;;;;;;4198045;28;20045;-67
2021/08/09 08:46:00;;;;;;;18.70;14.77;;;26.70;55.30;;;;;;4198153;28;20041;-64
2021/08/09 08:48:05;;;;;;;15.45;12.88;;;26.70;55.40;;;;;;4199077;28;20060;-64
2021/08/09 08:50:27;;;;;;;14.63;12.02;;;26.70;55.40;;;;;;4198000;28;20072;-65
2021/08/09 08:52:29;;;;;;;12.05;9.40;;;26.70;55.50;;;;;;4197751;28;20044;-65
2021/08/09 08:54:31;;;;;;;10.00;9.00;;;26.70;55.40;;;;;;4197718;28;20049;-66
2021/08/09 08:56:37;;;;;;;13.02;9.00;;;26.60;55.40;;;;;;4197696;28;20045;-65
2021/08/09 08:58:39;;;;;;;13.00;8.60;;;26.60;55.40;;;;;;4197646;28;20049;-64
2021/08/09 09:00:42;;;;;;;8.43;7.15;;;26.60;55.50;;;;;;4198149;28;20068;-63
2021/08/09 09:02:44;;;;;;;8.57;7.17;;;26.60;55.60;;;;;;4199024;28;20071;-64
2021/08/09 09:04:47;;;;;;;8.98;7.25;;;26.60;55.60;;;;;;4198139;28;20297;-59
2021/08/09 09:06:56;;;;;;;10.13;7.38;;;26.60;55.70;;;;;;4198287;28;20079;-67
2021/08/09 09:08:57;;;;;;;7.45;6.30;;;26.60;55.70;;;;;;4196765;28;20061;-68
2021/08/09 09:10:59;;;;;;;7.32;6.03;;;26.60;55.60;;;;;;4197630;28;20553;-64
2021/08/09 09:13:16;;;;;;;7.35;6.35;;;26.60;55.60;;;;;;4197603;28;20056;-65
2021/08/09 09:15:21;;;;;;;8.93;5.72;;;26.60;55.50;;;;;;4197635;28;20057;-66
2021/08/09 09:17:38;;;;;;;6.18;5.57;;;26.60;55.50;;;;;;4197810;28;20049;-65
2021/08/09 09:19:44;;;;;;;8.63;5.15;;;26.60;55.60;;;;;;4197708;28;20059;-66
2021/08/09 09:21:46;;;;;;;5.88;4.53;;;26.70;55.50;;;;;;4197858;28;20105;-66
2021/08/09 09:23:48;;;;;;;5.32;4.82;;;26.70;55.30;;;;;;4198249;28;20045;-64
2021/08/09 09:25:51;;;;;;;5.97;5.20;;;26.70;55.30;;;;;;4200408;28;20112;-66
2021/08/09 09:27:53;;;;;;;5.60;4.13;;;26.80;55.30;;;;;;4200512;28;20063;-64
2021/08/09 09:29:55;;;;;;;6.55;4.50;;;26.80;55.30;;;;;;4201858;28;20057;-60
2021/08/09 09:31:57;;;;;;;6.68;4.20;;;26.80;55.20;;;;;;4201689;28;20482;-59
2021/08/09 09:34:04;;;;;;;4.18;3.55;;;26.80;55.20;;;;;;4201403;28;20055;-58
2021/08/09 09:36:07;;;;;;;5.43;4.18;;;26.80;55.00;;;;;;4201614;28;20045;-58
2021/08/09 09:38:09;;;;;;;6.80;4.35;;;26.80;55.10;;;;;;4201456;28;20068;-58
2021/08/09 09:40:16;;;;;;;5.88;4.18;;;26.80;55.00;;;;;;4201629;28;20041;-58
2021/08/09 09:42:18;;;;;;;12.60;4.88;;;26.80;55.00;;;;;;4201522;28;20097;-59
2021/08/09 09:44:25;;;;;;;8.73;4.88;;;26.80;55.00;;;;;;4201429;28;20100;-58
2021/08/09 09:46:28;;;;;;;7.75;4.18;;;26.70;54.90;;;;;;4201560;28;20041;-59
2021/08/09 09:48:33;;;;;;;8.40;5.22;;;26.80;54.90;;;;;;4201520;28;20045;-58
2021/08/09 09:50:40;;;;;;;4.70;4.00;;;26.80;54.90;;;;;;4201357;28;20117;-59
2021/08/09 09:52:46;;;;;;;5.20;4.07;;;26.70;54.70;;;;;;4201347;28;20044;-58
2021/08/09 09:54:50;;;;;;;7.90;4.53;;;26.80;54.90;;;;;;4201335;28;20095;-58
2021/08/09 09:56:54;;;;;;;5.78;4.50;;;26.80;54.80;;;;;;4201313;28;20057;-58
2021/08/09 09:58:57;;;;;;;10.70;4.68;;;26.80;54.90;;;;;;4201324;28;20045;-58
2021/08/09 10:00:59;;;;;;;7.40;3.90;;;26.80;55.00;;;;;;4201195;28;20047;-58
2021/08/09 10:03:02;;;;;;;6.03;4.15;;;26.80;55.00;;;;;;4201264;28;20045;-58
2021/08/09 10:05:04;;;;;;;5.40;4.47;;;26.80;55.10;;;;;;4201145;28;20048;-58
2021/08/09 10:07:08;;;;;;;11.93;4.15;;;26.70;54.80;;;;;;4200830;28;20044;-59
2021/08/09 10:09:12;;;;;;;17.35;12.55;;;26.80;54.80;;;;;;4201074;28;20044;-58
2021/08/09 10:11:14;;;;;;;11.00;7.53;;;26.80;54.70;;;;;;4200888;28;20117;-61
2021/08/09 10:13:19;;;;;;;13.63;11.07;;;26.70;55.10;;;;;;4201233;28;20045;-61
2021/08/09 10:15:21;;;;;;;18.23;16.27;;;26.70;54.80;;;;;;4201055;28;20055;-60
2021/08/09 10:17:25;;;;;;;18.50;15.75;;;26.80;55.00;;;;;;4200959;28;20127;-60
2021/08/09 10:19:27;;;;;;;18.20;16.30;;;26.80;54.90;;;;;;4200913;28;20059;-60
2021/08/09 10:21:31;;;;;;;17.25;15.45;;;26.80;54.80;;;;;;4200689;28;20051;-61
2021/08/09 10:23:37;;;;;;;17.08;15.27;;;26.70;54.30;;;;;;4201027;28;20048;-62
2021/08/09 10:25:46;;;;;;;20.13;14.98;;;26.70;54.60;;;;;;4200887;28;20113;-61
2021/08/09 10:27:48;;;;;;;16.90;14.85;;;26.70;54.70;;;;;;4200925;28;20053;-61
2021/08/09 10:30:00;;;;;;;15.35;13.00;;;26.70;54.60;;;;;;4200921;28;20044;-60
2021/08/09 10:32:51;;;;;;;15.90;13.02;;;26.70;54.80;;;;;;4200791;28;20108;-60
2021/08/09 10:34:54;;;;;;;13.10;11.68;;;26.80;54.70;;;;;;4197461;28;20063;-61
2021/08/09 10:37:08;;;;;;;11.82;10.32;;;26.80;54.30;;;;;;4199888;28;20041;-60
2021/08/09 10:39:11;;;;;;;11.85;10.20;;;26.80;54.20;;;;;;4199417;28;20051;-60